sensor_id;sensor_type;location;lat;lon;timestamp;pressure;altitude;pressure_sealevel;temperature;humidity
30073;BME280;16897;52.422;13.678;2022-09-03T00:01:52;101575.56;;;15.45;44.39
30073;BME280;16897;52.422;13.678;2022-09-03T00:10:07;101586.28;;;15.42;44.36
30073;BME280;16897;52.422;13.678;2022-09-03T00:14:23;101564.88;;;15.34;44.70
30073;BME280;16897;52.422;13.678;2022-09-03T00:18:27;101567.38;;;15.36;44.56
30073;BME280;16897;52.422;13.678;2022-09-03T00:22:34;101583.19;;;15.36;44.70
30073;BME280;16897;52.422;13.678;2022-09-03T00:26:38;101548.59;;;15.13;44.69
30073;BME280;16897;52.422;13.678;2022-09-03T00:30:40;101532.16;;;15.10;44.49
30073;BME280;16897;52.422;13.678;2022-09-03T00:34:44;101577.47;;;15.29;44.65
30073;BME280;16897;52.422;13.678;2022-09-03T00:38:48;101563.63;;;15.11;44.72
30073;BME280;16897;52.422;13.678;2022-09-03T00:51:43;101581.28;;;15.09;44.80
30073;BME280;16897;52.422;13.678;2022-09-03T00:56:03;101574.34;;;15.08;44.84
30073;BME280;16897;52.422;13.678;2022-09-03T01:00:13;101571.78;;;15.07;44.69
30073;BME280;16897;52.422;13.678;2022-09-03T01:04:51;101562.59;;;14.99;44.87
30073;BME280;16897;52.422;13.678;2022-09-03T01:13:11;101540.09;;;14.79;44.96
30073;BME280;16897;52.422;13.678;2022-09-03T01:17:26;101550.81;;;14.76;44.99
30073;BME280;16897;52.422;13.678;2022-09-03T01:21:54;101557.97;;;14.74;45.00
30073;BME280;16897;52.422;13.678;2022-09-03T01:30:23;101546.81;;;14.55;45.14
30073;BME280;16897;52.422;13.678;2022-09-03T01:38:57;101538.69;;;14.44;45.14
30073;BME280;16897;52.422;13.678;2022-09-03T01:43:23;101556.00;;;14.48;45.24
30073;BME280;16897;52.422;13.678;2022-09-03T01:48:36;101556.06;;;14.46;45.24
30073;BME280;16897;52.422;13.678;2022-09-03T01:52:39;101549.22;;;14.44;45.25
30073;BME280;16897;52.422;13.678;2022-09-03T01:57:10;101541.94;;;14.33;45.39
30073;BME280;16897;52.422;13.678;2022-09-03T02:01:28;101538.56;;;14.31;45.46
30073;BME280;16897;52.422;13.678;2022-09-03T02:05:31;101540.63;;;14.26;45.18
30073;BME280;16897;52.422;13.678;2022-09-03T02:09:32;101539.09;;;14.22;45.29
30073;BME280;16897;52.422;13.678;2022-09-03T02:13:37;101550.19;;;14.27;45.35
30073;BME280;16897;52.422;13.678;2022-09-03T02:17:40;101495.44;;;13.89;45.36
30073;BME280;16897;52.422;13.678;2022-09-03T02:21:48;101557.03;;;14.29;45.40
30073;BME280;16897;52.422;13.678;2022-09-03T02:25:51;101550.44;;;14.22;45.40
30073;BME280;16897;52.422;13.678;2022-09-03T02:29:56;101541.97;;;14.17;45.40
30073;BME280;16897;52.422;13.678;2022-09-03T02:33:57;101540.19;;;14.17;45.48
30073;BME280;16897;52.422;13.678;2022-09-03T02:38:13;101548.06;;;14.17;45.41
30073;BME280;16897;52.422;13.678;2022-09-03T02:42:14;101530.00;;;13.97;45.46
30073;BME280;16897;52.422;13.678;2022-09-03T02:46:43;101564.88;;;14.15;45.52
30073;BME280;16897;52.422;13.678;2022-09-03T02:50:47;101540.06;;;14.05;45.53
30073;BME280;16897;52.422;13.678;2022-09-03T02:54:48;101534.41;;;13.97;45.53
30073;BME280;16897;52.422;13.678;2022-09-03T02:58:50;101542.94;;;14.00;45.56
30073;BME280;16897;52.422;13.678;2022-09-03T03:02:52;101477.84;;;13.59;45.43
30073;BME280;16897;52.422;13.678;2022-09-03T03:06:55;101550.81;;;14.00;45.68
30073;BME280;16897;52.422;13.678;2022-09-03T03:10:57;101520.34;;;13.82;45.65
30073;BME280;16897;52.422;13.678;2022-09-03T03:14:59;101543.28;;;13.94;45.55
30073;BME280;16897;52.422;13.678;2022-09-03T03:19:00;101551.06;;;13.95;45.81
30073;BME280;16897;52.422;13.678;2022-09-03T03:23:02;101515.44;;;13.76;45.85
30073;BME280;16897;52.422;13.678;2022-09-03T03:27:04;101531.19;;;13.76;45.74
30073;BME280;16897;52.422;13.678;2022-09-03T03:31:12;101532.78;;;13.78;45.77
30073;BME280;16897;52.422;13.678;2022-09-03T03:35:14;101547.34;;;13.84;45.80
30073;BME280;16897;52.422;13.678;2022-09-03T03:39:15;101556.06;;;13.84;45.87
30073;BME280;16897;52.422;13.678;2022-09-03T03:43:16;101546.34;;;13.70;45.84
30073;BME280;16897;52.422;13.678;2022-09-03T03:47:18;101469.34;;;13.22;45.91
30073;BME280;16897;52.422;13.678;2022-09-03T03:51:19;101531.00;;;13.63;45.95
30073;BME280;16897;52.422;13.678;2022-09-03T03:55:21;101566.81;;;13.80;45.92
30073;BME280;16897;52.422;13.678;2022-09-03T03:59:23;101533.75;;;13.61;45.96
30073;BME280;16897;52.422;13.678;2022-09-03T04:03:24;101553.38;;;13.70;45.96
30073;BME280;16897;52.422;13.678;2022-09-03T04:07:26;101510.34;;;13.41;46.07
30073;BME280;16897;52.422;13.678;2022-09-03T04:11:27;101530.84;;;13.50;46.22
30073;BME280;16897;52.422;13.678;2022-09-03T04:15:28;101497.81;;;13.30;46.04
30073;BME280;16897;52.422;13.678;2022-09-03T04:19:30;101554.38;;;13.67;46.01
30073;BME280;16897;52.422;13.678;2022-09-03T04:23:38;101520.19;;;13.53;46.06
30073;BME280;16897;52.422;13.678;2022-09-03T04:27:40;101550.81;;;13.68;46.20
30073;BME280;16897;52.422;13.678;2022-09-03T04:31:41;101545.50;;;13.70;46.25
30073;BME280;16897;52.422;13.678;2022-09-03T04:40:08;101553.88;;;13.77;46.49
30073;BME280;16897;52.422;13.678;2022-09-03T04:44:10;101536.97;;;13.66;46.29
30073;BME280;16897;52.422;13.678;2022-09-03T04:48:12;101555.25;;;13.84;46.34
30073;BME280;16897;52.422;13.678;2022-09-03T04:52:13;101552.38;;;13.88;46.44
30073;BME280;16897;52.422;13.678;2022-09-03T04:56:20;101550.66;;;13.87;46.34
30073;BME280;16897;52.422;13.678;2022-09-03T05:00:22;101546.00;;;13.92;46.29
30073;BME280;16897;52.422;13.678;2022-09-03T05:04:24;101542.53;;;13.92;46.44
30073;BME280;16897;52.422;13.678;2022-09-03T05:08:25;101530.50;;;13.88;46.40
30073;BME280;16897;52.422;13.678;2022-09-03T05:12:27;101473.88;;;13.52;46.36
30073;BME280;16897;52.422;13.678;2022-09-03T05:16:29;101546.09;;;13.91;46.40
30073;BME280;16897;52.422;13.678;2022-09-03T05:20:31;101541.88;;;13.88;46.36
30073;BME280;16897;52.422;13.678;2022-09-03T05:24:33;101563.00;;;14.01;46.48
30073;BME280;16897;52.422;13.678;2022-09-03T05:28:39;101567.06;;;14.07;46.61
30073;BME280;16897;52.422;13.678;2022-09-03T05:32:41;101484.13;;;13.57;46.50
30073;BME280;16897;52.422;13.678;2022-09-03T05:36:43;101536.09;;;13.82;46.59
30073;BME280;16897;52.422;13.678;2022-09-03T05:40:45;101565.72;;;14.00;46.70
30073;BME280;16897;52.422;13.678;2022-09-03T05:44:46;101571.31;;;14.09;46.59
30073;BME280;16897;52.422;13.678;2022-09-03T05:48:49;101584.34;;;14.11;46.65
30073;BME280;16897;52.422;13.678;2022-09-03T05:52:51;101512.22;;;13.70;46.79
30073;BME280;16897;52.422;13.678;2022-09-03T05:56:53;101569.38;;;14.13;46.76
30073;BME280;16897;52.422;13.678;2022-09-03T06:00:54;101553.00;;;14.08;46.64
30073;BME280;16897;52.422;13.678;2022-09-03T06:04:56;101560.19;;;14.20;46.86
30073;BME280;16897;52.422;13.678;2022-09-03T06:09:05;101561.53;;;14.27;46.90
30073;BME280;16897;52.422;13.678;2022-09-03T06:13:06;101504.69;;;13.96;46.78
30073;BME280;16897;52.422;13.678;2022-09-03T06:17:08;101568.69;;;14.55;46.90
30073;BME280;16897;52.422;13.678;2022-09-03T06:21:11;101566.31;;;14.67;46.85
30073;BME280;16897;52.422;13.678;2022-09-03T06:25:12;101565.38;;;14.82;47.00
30073;BME280;16897;52.422;13.678;2022-09-03T06:29:15;101548.50;;;14.86;47.00
30073;BME280;16897;52.422;13.678;2022-09-03T06:33:18;101573.59;;;15.06;46.93
30073;BME280;16897;52.422;13.678;2022-09-03T06:37:19;101563.44;;;15.14;46.93
30073;BME280;16897;52.422;13.678;2022-09-03T06:41:26;101555.44;;;15.30;46.85
30073;BME280;16897;52.422;13.678;2022-09-03T06:45:29;101561.38;;;15.48;46.98
30073;BME280;16897;52.422;13.678;2022-09-03T06:49:31;101567.75;;;15.58;46.97
30073;BME280;16897;52.422;13.678;2022-09-03T06:53:35;101561.97;;;15.66;46.84
30073;BME280;16897;52.422;13.678;2022-09-03T06:57:37;101552.78;;;15.73;46.77
30073;BME280;16897;52.422;13.678;2022-09-03T07:01:39;101580.94;;;16.00;46.89
30073;BME280;16897;52.422;13.678;2022-09-03T07:05:41;101562.84;;;16.08;46.82
30073;BME280;16897;52.422;13.678;2022-09-03T07:09:43;101563.63;;;16.23;47.15
30073;BME280;16897;52.422;13.678;2022-09-03T07:13:47;101560.94;;;16.37;46.92
30073;BME280;16897;52.422;13.678;2022-09-03T07:17:49;101571.97;;;16.56;47.13
30073;BME280;16897;52.422;13.678;2022-09-03T07:21:50;101535.56;;;16.49;47.03
30073;BME280;16897;52.422;13.678;2022-09-03T07:25:55;101570.97;;;16.85;47.15
30073;BME280;16897;52.422;13.678;2022-09-03T07:29:57;101565.91;;;16.94;46.87
30073;BME280;16897;52.422;13.678;2022-09-03T07:34:00;101568.53;;;17.20;46.90
30073;BME280;16897;52.422;13.678;2022-09-03T07:38:04;101554.09;;;17.25;46.92
30073;BME280;16897;52.422;13.678;2022-09-03T07:42:05;101488.03;;;17.01;46.71
30073;BME280;16897;52.422;13.678;2022-09-03T07:46:11;101536.38;;;17.52;46.83
30073;BME280;16897;52.422;13.678;2022-09-03T07:50:13;101585.28;;;18.07;46.75
30073;BME280;16897;52.422;13.678;2022-09-03T07:54:16;101588.53;;;18.34;46.58
30073;BME280;16897;52.422;13.678;2022-09-03T07:58:17;101588.22;;;18.50;46.72
30073;BME280;16897;52.422;13.678;2022-09-03T08:02:19;101591.50;;;18.65;46.74
30073;BME280;16897;52.422;13.678;2022-09-03T08:06:22;101583.13;;;18.71;46.35
30073;BME280;16897;52.422;13.678;2022-09-03T08:10:23;101530.47;;;18.44;46.41
30073;BME280;16897;52.422;13.678;2022-09-03T08:14:26;101533.41;;;18.52;46.39
30073;BME280;16897;52.422;13.678;2022-09-03T08:18:32;101533.69;;;18.72;46.67
30073;BME280;16897;52.422;13.678;2022-09-03T08:22:38;101521.47;;;18.93;46.43
30073;BME280;16897;52.422;13.678;2022-09-03T08:26:40;101584.06;;;19.51;46.35
30073;BME280;16897;52.422;13.678;2022-09-03T08:30:42;101586.00;;;19.71;46.65
30073;BME280;16897;52.422;13.678;2022-09-03T08:34:44;101586.47;;;19.87;46.33
30073;BME280;16897;52.422;13.678;2022-09-03T08:38:47;101581.34;;;20.07;46.27
30073;BME280;16897;52.422;13.678;2022-09-03T08:43:14;101538.41;;;20.13;46.24
30073;BME280;16897;52.422;13.678;2022-09-03T08:51:27;101550.16;;;20.73;46.16
30073;BME280;16897;52.422;13.678;2022-09-03T08:55:33;101566.66;;;20.98;45.86
30073;BME280;16897;52.422;13.678;2022-09-03T08:59:36;101546.03;;;21.11;45.66
30073;BME280;16897;52.422;13.678;2022-09-03T09:08:07;101557.84;;;21.59;45.58
30073;BME280;16897;52.422;13.678;2022-09-03T09:12:38;101536.03;;;21.65;45.73
30073;BME280;16897;52.422;13.678;2022-09-03T09:16:54;101541.81;;;21.99;45.68
30073;BME280;16897;52.422;13.678;2022-09-03T09:21:19;101538.19;;;22.10;45.45
30073;BME280;16897;52.422;13.678;2022-09-03T09:25:22;101535.81;;;22.26;45.08
30073;BME280;16897;52.422;13.678;2022-09-03T09:29:28;101519.16;;;22.34;44.78
30073;BME280;16897;52.422;13.678;2022-09-03T09:33:31;101541.25;;;22.54;45.05
30073;BME280;16897;52.422;13.678;2022-09-03T09:37:33;101522.31;;;22.57;44.91
30073;BME280;16897;52.422;13.678;2022-09-03T09:41:35;101478.06;;;22.46;44.97
30073;BME280;16897;52.422;13.678;2022-09-03T09:45:39;101518.75;;;22.86;44.59
30073;BME280;16897;52.422;13.678;2022-09-03T09:49:58;101504.44;;;22.96;44.74
30073;BME280;16897;52.422;13.678;2022-09-03T09:54:15;101492.09;;;22.95;44.43
30073;BME280;16897;52.422;13.678;2022-09-03T09:58:24;101516.94;;;23.24;44.83
30073;BME280;16897;52.422;13.678;2022-09-03T10:02:26;101476.03;;;23.15;44.63
30073;BME280;16897;52.422;13.678;2022-09-03T10:06:29;101511.16;;;23.56;44.46
30073;BME280;16897;52.422;13.678;2022-09-03T10:10:50;101493.84;;;23.60;44.17
30073;BME280;16897;52.422;13.678;2022-09-03T10:19:19;101443.47;;;23.57;43.84
30073;BME280;16897;52.422;13.678;2022-09-03T10:23:27;101490.59;;;24.02;43.77
30073;BME280;16897;52.422;13.678;2022-09-03T10:27:29;101479.63;;;24.05;43.55
30073;BME280;16897;52.422;13.678;2022-09-03T10:36:14;101495.13;;;24.27;43.33
30073;BME280;16897;52.422;13.678;2022-09-03T10:44:48;101488.53;;;24.14;43.34
30073;BME280;16897;52.422;13.678;2022-09-03T11:06:10;101469.13;;;23.85;42.99
30073;BME280;16897;52.422;13.678;2022-09-03T11:10:21;101462.97;;;23.85;42.71
30073;BME280;16897;52.422;13.678;2022-09-03T11:14:43;101455.53;;;23.97;43.01
30073;BME280;16897;52.422;13.678;2022-09-03T11:18:53;101443.41;;;24.02;42.53
30073;BME280;16897;52.422;13.678;2022-09-03T11:23:00;101432.09;;;24.08;42.23
30073;BME280;16897;52.422;13.678;2022-09-03T11:31:48;101442.94;;;24.51;42.15
30073;BME280;16897;52.422;13.678;2022-09-03T11:35:59;101433.84;;;24.70;41.23
30073;BME280;16897;52.422;13.678;2022-09-03T11:40:12;101424.38;;;24.84;41.51
30073;BME280;16897;52.422;13.678;2022-09-03T11:44:17;101431.78;;;24.90;41.25
30073;BME280;16897;52.422;13.678;2022-09-03T11:48:44;101432.78;;;24.97;41.59
30073;BME280;16897;52.422;13.678;2022-09-03T11:52:51;101382.59;;;24.66;40.89
30073;BME280;16897;52.422;13.678;2022-09-03T11:57:20;101440.16;;;25.03;40.98
30073;BME280;16897;52.422;13.678;2022-09-03T12:01:24;101391.56;;;24.65;41.02
30073;BME280;16897;52.422;13.678;2022-09-03T12:05:49;101418.53;;;24.80;40.82
30073;BME280;16897;52.422;13.678;2022-09-03T12:18:33;101407.69;;;24.82;41.17
30073;BME280;16897;52.422;13.678;2022-09-03T12:22:35;101409.69;;;24.80;41.32
30073;BME280;16897;52.422;13.678;2022-09-03T12:26:40;101392.22;;;24.59;40.46
30073;BME280;16897;52.422;13.678;2022-09-03T12:30:42;101412.13;;;24.65;40.79
30073;BME280;16897;52.422;13.678;2022-09-03T12:34:44;101373.25;;;24.36;41.00
30073;BME280;16897;52.422;13.678;2022-09-03T12:38:45;101389.59;;;24.67;41.17
30073;BME280;16897;52.422;13.678;2022-09-03T12:42:49;101358.88;;;24.63;40.98
30073;BME280;16897;52.422;13.678;2022-09-03T12:46:59;101374.97;;;24.88;40.63
30073;BME280;16897;52.422;13.678;2022-09-03T12:51:01;101390.84;;;24.89;40.54
30073;BME280;16897;52.422;13.678;2022-09-03T12:55:37;101374.78;;;24.81;40.29
30073;BME280;16897;52.422;13.678;2022-09-03T12:59:41;101375.81;;;24.88;40.13
30073;BME280;16897;52.422;13.678;2022-09-03T13:07:55;101313.09;;;24.50;40.23
30073;BME280;16897;52.422;13.678;2022-09-03T13:11:58;101381.66;;;24.92;40.10
30073;BME280;16897;52.422;13.678;2022-09-03T13:16:26;101380.00;;;24.99;39.90
30073;BME280;16897;52.422;13.678;2022-09-03T13:20:54;101370.50;;;25.05;40.20
30073;BME280;16897;52.422;13.678;2022-09-03T13:33:32;101363.97;;;24.99;39.49
30073;BME280;16897;52.422;13.678;2022-09-03T13:37:53;101375.84;;;25.05;39.36
30073;BME280;16897;52.422;13.678;2022-09-03T13:51:10;101344.75;;;24.79;39.75
30073;BME280;16897;52.422;13.678;2022-09-03T13:55:36;101372.97;;;24.82;39.89
30073;BME280;16897;52.422;13.678;2022-09-03T14:04:00;101340.00;;;24.65;39.75
30073;BME280;16897;52.422;13.678;2022-09-03T14:09:11;101342.66;;;24.65;39.53
30073;BME280;16897;52.422;13.678;2022-09-03T14:21:44;101339.53;;;24.69;39.97
30073;BME280;16897;52.422;13.678;2022-09-03T14:25:54;101327.47;;;24.65;39.33
30073;BME280;16897;52.422;13.678;2022-09-03T14:30:02;101335.47;;;24.65;39.61
30073;BME280;16897;52.422;13.678;2022-09-03T14:42:40;101330.28;;;24.56;39.59
30073;BME280;16897;52.422;13.678;2022-09-03T15:09:54;101334.81;;;24.55;39.36
30073;BME280;16897;52.422;13.678;2022-09-03T15:23:11;101300.41;;;24.52;39.25
30073;BME280;16897;52.422;13.678;2022-09-03T15:31:44;101311.81;;;24.70;39.20
30073;BME280;16897;52.422;13.678;2022-09-03T15:40:22;101330.00;;;24.67;38.73
30073;BME280;16897;52.422;13.678;2022-09-03T15:44:27;101320.28;;;24.58;38.66
30073;BME280;16897;52.422;13.678;2022-09-03T16:05:47;101327.66;;;24.64;39.02
30073;BME280;16897;52.422;13.678;2022-09-03T16:14:14;101328.31;;;24.58;38.69
30073;BME280;16897;52.422;13.678;2022-09-03T16:23:09;101333.44;;;24.51;38.94
30073;BME280;16897;52.422;13.678;2022-09-03T16:27:16;101337.25;;;24.48;38.61
30073;BME280;16897;52.422;13.678;2022-09-03T16:36:05;101339.72;;;24.42;38.75
30073;BME280;16897;52.422;13.678;2022-09-03T16:40:40;101328.66;;;24.28;38.90
30073;BME280;16897;52.422;13.678;2022-09-03T16:45:02;101329.13;;;24.24;38.85
30073;BME280;16897;52.422;13.678;2022-09-03T16:49:16;101331.66;;;24.25;39.04
30073;BME280;16897;52.422;13.678;2022-09-03T16:59:25;101331.34;;;24.02;38.92
30073;BME280;16897;52.422;13.678;2022-09-03T17:11:41;101341.97;;;23.94;38.65
30073;BME280;16897;52.422;13.678;2022-09-03T17:19:58;101339.19;;;23.78;38.90
30073;BME280;16897;52.422;13.678;2022-09-03T17:24:17;101344.56;;;23.68;39.20
30073;BME280;16897;52.422;13.678;2022-09-03T17:33:06;101330.84;;;23.37;39.20
30073;BME280;16897;52.422;13.678;2022-09-03T17:45:50;101345.00;;;23.19;39.13
30073;BME280;16897;52.422;13.678;2022-09-03T17:50:17;101356.56;;;23.10;39.11
30073;BME280;16897;52.422;13.678;2022-09-03T17:54:44;101361.41;;;22.97;39.37
30073;BME280;16897;52.422;13.678;2022-09-03T17:58:50;101358.09;;;22.85;39.21
30073;BME280;16897;52.422;13.678;2022-09-03T18:03:06;101354.25;;;22.70;39.10
30073;BME280;16897;52.422;13.678;2022-09-03T18:07:25;101377.63;;;22.76;39.39
30073;BME280;16897;52.422;13.678;2022-09-03T18:11:33;101376.56;;;22.69;39.15
30073;BME280;16897;52.422;13.678;2022-09-03T18:15:48;101375.75;;;22.59;39.16
30073;BME280;16897;52.422;13.678;2022-09-03T18:20:07;101374.53;;;22.53;39.24
30073;BME280;16897;52.422;13.678;2022-09-03T18:24:44;101395.53;;;22.56;39.26
30073;BME280;16897;52.422;13.678;2022-09-03T18:29:11;101396.97;;;22.50;39.41
30073;BME280;16897;52.422;13.678;2022-09-03T18:33:32;101383.38;;;22.44;39.46
30073;BME280;16897;52.422;13.678;2022-09-03T18:37:52;101365.66;;;22.25;39.37
30073;BME280;16897;52.422;13.678;2022-09-03T18:42:16;101387.91;;;22.34;39.54
30073;BME280;16897;52.422;13.678;2022-09-03T19:00:29;101401.56;;;22.01;39.69
30073;BME280;16897;52.422;13.678;2022-09-03T19:05:00;101408.81;;;21.99;39.57
30073;BME280;16897;52.422;13.678;2022-09-03T19:09:51;101390.94;;;21.82;39.54
30073;BME280;16897;52.422;13.678;2022-09-03T19:14:33;101402.97;;;21.86;39.60
30073;BME280;16897;52.422;13.678;2022-09-03T19:23:52;101402.69;;;21.70;39.71
30073;BME280;16897;52.422;13.678;2022-09-03T19:28:19;101411.66;;;21.69;39.60
30073;BME280;16897;52.422;13.678;2022-09-03T19:32:58;101392.06;;;21.50;39.38
30073;BME280;16897;52.422;13.678;2022-09-03T19:37:40;101417.66;;;21.61;39.68
30073;BME280;16897;52.422;13.678;2022-09-03T19:42:06;101421.72;;;21.55;39.51
30073;BME280;16897;52.422;13.678;2022-09-03T19:46:50;101420.31;;;21.51;39.75
30073;BME280;16897;52.422;13.678;2022-09-03T19:51:17;101422.97;;;21.51;39.54
30073;BME280;16897;52.422;13.678;2022-09-03T19:55:43;101400.41;;;21.36;39.70
30073;BME280;16897;52.422;13.678;2022-09-03T20:00:04;101399.56;;;21.35;39.64
30073;BME280;16897;52.422;13.678;2022-09-03T20:04:33;101394.94;;;21.28;39.71
30073;BME280;16897;52.422;13.678;2022-09-03T20:08:55;101416.34;;;21.36;39.65
30073;BME280;16897;52.422;13.678;2022-09-03T20:13:18;101402.06;;;21.27;39.98
30073;BME280;16897;52.422;13.678;2022-09-03T20:30:57;101433.41;;;21.24;39.71
30073;BME280;16897;52.422;13.678;2022-09-03T20:39:35;101437.00;;;21.13;39.81
30073;BME280;16897;52.422;13.678;2022-09-03T20:44:11;101436.88;;;21.14;39.93
30073;BME280;16897;52.422;13.678;2022-09-03T20:52:38;101427.34;;;21.02;39.75
30073;BME280;16897;52.422;13.678;2022-09-03T20:57:17;101371.03;;;20.58;40.00
30073;BME280;16897;52.422;13.678;2022-09-03T21:01:28;101456.81;;;21.09;39.95
30073;BME280;16897;52.422;13.678;2022-09-03T21:05:53;101463.97;;;21.08;39.91
30073;BME280;16897;52.422;13.678;2022-09-03T21:18:40;101439.72;;;20.92;39.61
30073;BME280;16897;52.422;13.678;2022-09-03T21:27:08;101461.25;;;20.89;39.85
30073;BME280;16897;52.422;13.678;2022-09-03T21:31:33;101462.53;;;20.94;39.61
30073;BME280;16897;52.422;13.678;2022-09-03T21:35:49;101464.34;;;20.94;39.96
30073;BME280;16897;52.422;13.678;2022-09-03T21:39:55;101452.28;;;20.80;40.10
30073;BME280;16897;52.422;13.678;2022-09-03T21:44:18;101469.59;;;20.84;39.95
30073;BME280;16897;52.422;13.678;2022-09-03T21:48:25;101463.16;;;20.77;40.07
30073;BME280;16897;52.422;13.678;2022-09-03T21:52:53;101484.97;;;20.81;39.94
30073;BME280;16897;52.422;13.678;2022-09-03T22:01:16;101473.44;;;20.70;39.99
30073;BME280;16897;52.422;13.678;2022-09-03T22:05:20;101486.72;;;20.70;39.69
30073;BME280;16897;52.422;13.678;2022-09-03T22:09:30;101493.03;;;20.69;39.81
30073;BME280;16897;52.422;13.678;2022-09-03T22:14:17;101495.22;;;20.64;40.00
30073;BME280;16897;52.422;13.678;2022-09-03T22:18:18;101467.72;;;20.44;39.96
30073;BME280;16897;52.422;13.678;2022-09-03T22:22:38;101440.84;;;20.17;39.83
30073;BME280;16897;52.422;13.678;2022-09-03T22:26:55;101486.66;;;20.40;40.02
30073;BME280;16897;52.422;13.678;2022-09-03T22:31:22;101483.09;;;20.29;39.88
30073;BME280;16897;52.422;13.678;2022-09-03T22:39:38;101503.41;;;20.19;40.04
30073;BME280;16897;52.422;13.678;2022-09-03T22:48:33;101509.28;;;20.02;40.17
30073;BME280;16897;52.422;13.678;2022-09-03T22:52:45;101492.13;;;19.85;40.13
30073;BME280;16897;52.422;13.678;2022-09-03T22:56:51;101498.75;;;19.79;40.16
30073;BME280;16897;52.422;13.678;2022-09-03T23:01:13;101514.66;;;19.79;40.12
30073;BME280;16897;52.422;13.678;2022-09-03T23:05:29;101518.53;;;19.75;40.27
30073;BME280;16897;52.422;13.678;2022-09-03T23:09:34;101521.19;;;19.64;40.34
30073;BME280;16897;52.422;13.678;2022-09-03T23:13:42;101511.56;;;19.52;40.54
30073;BME280;16897;52.422;13.678;2022-09-03T23:17:53;101526.50;;;19.53;40.15
30073;BME280;16897;52.422;13.678;2022-09-03T23:22:10;101536.03;;;19.55;40.37
30073;BME280;16897;52.422;13.678;2022-09-03T23:26:26;101526.13;;;19.46;40.32
30073;BME280;16897;52.422;13.678;2022-09-03T23:30:30;101526.75;;;19.38;40.25
30073;BME280;16897;52.422;13.678;2022-09-03T23:34:32;101526.53;;;19.30;40.08
